createdAt,value
2017-05-03T00:01:01.582Z,941.7
2017-05-03T00:02:09.794Z,941.7
2017-05-03T00:03:17.816Z,941.7
2017-05-03T00:04:25.848Z,941.7
2017-05-03T00:05:33.939Z,941.7
2017-05-03T00:06:42.026Z,941.7
2017-05-03T00:07:50.318Z,941.7
2017-05-03T00:08:58.284Z,941.7
2017-05-03T00:10:06.293Z,941.7
2017-05-03T00:11:14.372Z,941.7
2017-05-03T00:12:22.460Z,941.7
2017-05-03T00:13:30.607Z,941.7
2017-05-03T00:14:38.654Z,941.7
2017-05-03T00:15:46.726Z,941.7
2017-05-03T07:34:56.353Z,942.0
2017-05-03T07:36:04.437Z,942.0
2017-05-03T07:37:12.529Z,942.0
2017-05-03T07:38:20.668Z,942.0
2017-05-03T07:39:28.715Z,942.0
2017-05-03T07:40:36.810Z,942.0
2017-05-03T07:41:44.873Z,942.0
2017-05-03T07:42:52.961Z,942.0
2017-05-03T07:44:01.106Z,942.0
2017-05-03T07:45:09.136Z,942.0
2017-05-03T07:46:17.223Z,942.0
2017-05-03T07:47:25.310Z,942.0
2017-05-03T07:48:33.519Z,942.0
2017-05-03T07:49:41.663Z,942.0
2017-05-03T07:50:49.723Z,942.0
2017-05-03T07:51:57.757Z,942.0
2017-05-03T07:53:05.932Z,942.0
2017-05-03T07:54:14.030Z,942.0
2017-05-03T07:55:23.742Z,942.0
2017-05-03T07:56:30.011Z,942.1
2017-05-03T07:57:38.095Z,942.0
2017-05-03T07:58:46.305Z,942.1
2017-05-03T07:59:54.382Z,942.1
2017-05-03T08:01:02.491Z,942.1
2017-05-03T08:02:10.620Z,942.1
2017-05-03T08:03:18.606Z,942.1
2017-05-03T08:04:26.785Z,942.1
2017-05-03T08:05:35.273Z,942.1
2017-05-03T08:06:43.202Z,942.0
2017-05-03T08:07:50.980Z,942.1
2017-05-03T08:08:58.982Z,942.0
2017-05-03T08:10:07.071Z,942.1
2017-05-03T08:11:15.158Z,942.1
2017-05-03T08:12:23.367Z,942.1
2017-05-03T08:13:31.330Z,942.1
2017-05-03T08:14:39.419Z,942.1
2017-05-03T08:15:47.508Z,942.0
2017-05-03T08:16:55.593Z,942.1
2017-05-03T08:18:04.306Z,942.1
2017-05-03T08:19:11.774Z,942.1
2017-05-03T08:20:19.910Z,942.1
2017-05-03T08:21:27.941Z,942.0
2017-05-03T08:22:36.029Z,942.1
2017-05-03T08:23:44.249Z,942.1
2017-05-03T08:24:52.685Z,942.0
2017-05-03T08:26:00.290Z,942.1
2017-05-03T08:27:08.784Z,942.1
2017-05-03T08:28:16.582Z,942.1
2017-05-03T08:29:24.671Z,942.0
2017-05-03T08:30:33.193Z,942.1
2017-05-03T08:31:40.727Z,942.1
2017-05-03T08:32:48.832Z,942.1
2017-05-03T08:33:56.901Z,942.1
2017-05-03T08:35:05.200Z,942.1
2017-05-03T08:36:13.199Z,942.1
2017-05-03T08:37:21.164Z,942.1
2017-05-03T08:38:29.250Z,942.1
2017-05-03T08:39:37.335Z,942.1
2017-05-03T08:40:45.553Z,942.1
2017-05-03T08:41:53.511Z,942.1
2017-05-03T08:43:01.601Z,942.1
2017-05-03T08:44:09.691Z,942.1
2017-05-03T08:45:17.773Z,942.1
2017-05-03T08:46:26.128Z,942.1
2017-05-03T08:47:33.947Z,942.1
2017-05-03T08:48:42.036Z,942.1
2017-05-03T08:49:50.124Z,942.1
2017-05-03T08:50:58.209Z,942.1
2017-05-03T08:52:06.465Z,942.1
2017-05-03T08:53:14.386Z,942.1
2017-05-03T08:54:22.472Z,942.0
2017-05-03T08:55:30.577Z,942.1
2017-05-03T08:56:38.651Z,942.0
2017-05-03T08:57:46.906Z,942.1
2017-05-03T08:58:54.827Z,942.0
2017-05-03T09:00:02.915Z,942.1
2017-05-03T09:01:11.003Z,942.0
2017-05-03T09:02:19.092Z,942.1
2017-05-03T09:03:27.436Z,942.0
2017-05-03T09:04:35.262Z,942.1
2017-05-03T09:05:43.355Z,942.1
2017-05-03T09:06:51.436Z,942.1
2017-05-03T09:07:59.650Z,942.0
2017-05-03T09:09:07.834Z,942.1
2017-05-03T09:10:15.701Z,942.0
2017-05-03T09:11:23.796Z,942.0
2017-05-03T09:12:31.875Z,942.0
2017-05-03T09:13:40.147Z,942.0
2017-05-03T09:14:48.189Z,942.0
2017-05-03T09:15:56.131Z,942.0
2017-05-03T09:17:04.221Z,942.0
2017-05-03T09:18:12.305Z,942.0
2017-05-03T09:19:20.395Z,942.0
2017-05-03T09:20:28.710Z,942.0
2017-05-03T09:21:37.152Z,942.0
2017-05-03T09:22:44.658Z,941.9
2017-05-03T09:23:52.865Z,941.9
2017-05-03T09:25:01.143Z,942.0
2017-05-03T09:26:09.038Z,942.0
2017-05-03T09:27:17.001Z,942.0
2017-05-03T09:28:25.089Z,942.0
2017-05-03T09:29:33.177Z,942.0
2017-05-03T09:30:41.404Z,942.0
2017-05-03T09:31:49.531Z,942.0
2017-05-03T09:32:57.442Z,942.0
2017-05-03T09:34:05.528Z,942.0
2017-05-03T09:35:13.621Z,942.0
2017-05-03T09:36:21.700Z,942.0
2017-05-03T09:37:29.909Z,942.0
2017-05-03T09:38:37.874Z,942.0
2017-05-03T09:39:46.081Z,942.0
2017-05-03T09:40:54.049Z,942.0
2017-05-03T09:42:02.137Z,942.0
2017-05-03T09:43:10.280Z,942.0
2017-05-03T09:44:18.317Z,942.0
2017-05-03T09:45:26.397Z,942.0
2017-05-03T09:46:34.482Z,942.0
2017-05-03T09:47:42.692Z,942.0
2017-05-03T09:48:50.791Z,942.0
2017-05-03T09:49:58.744Z,942.0
2017-05-03T09:51:06.834Z,942.0
2017-05-03T09:52:14.921Z,942.0
2017-05-03T09:53:23.010Z,942.0
2017-05-03T09:54:31.243Z,942.0
2017-05-03T09:55:39.305Z,942.0
2017-05-03T09:56:47.269Z,942.0
2017-05-03T09:57:55.356Z,942.0
2017-05-03T09:59:03.442Z,942.0
2017-05-03T10:00:11.647Z,942.0
2017-05-03T10:01:19.617Z,942.0
2017-05-03T10:02:27.704Z,942.0
2017-05-03T10:03:35.791Z,942.0
2017-05-03T10:04:43.981Z,942.0
2017-05-03T10:05:52.025Z,942.0
2017-05-03T10:07:00.051Z,942.0
2017-05-03T10:08:08.140Z,942.0
2017-05-03T10:09:16.225Z,942.0
2017-05-03T10:10:24.314Z,942.0
2017-05-03T10:11:32.523Z,942.0
2017-05-03T10:12:40.488Z,942.0
2017-05-03T10:13:48.579Z,942.0
2017-05-03T10:14:56.664Z,942.0
2017-05-03T10:16:04.789Z,942.0
2017-05-03T10:17:12.955Z,942.0
2017-05-03T10:18:20.935Z,942.0
2017-05-03T10:19:29.014Z,942.0
2017-05-03T10:20:37.103Z,942.0
2017-05-03T10:21:45.197Z,942.0
2017-05-03T10:22:53.421Z,942.0
2017-05-03T10:25:09.552Z,942.0
2017-05-03T10:26:17.538Z,942.0
2017-05-03T10:27:25.681Z,942.0
2017-05-03T10:28:33.831Z,942.0
2017-05-03T10:29:41.801Z,942.0
2017-05-03T10:30:49.905Z,942.0
2017-05-03T10:31:57.974Z,942.0
2017-05-03T10:33:06.139Z,942.0
2017-05-03T10:34:14.267Z,942.0
2017-05-03T10:35:22.236Z,942.0
2017-05-03T10:36:30.322Z,942.0
2017-05-03T10:37:38.410Z,942.1
2017-05-03T10:38:46.996Z,942.1
2017-05-03T10:39:55.418Z,942.0
2017-05-03T10:41:02.687Z,942.1
2017-05-03T10:42:10.757Z,942.0
2017-05-03T10:43:19.090Z,942.0
2017-05-03T10:44:27.060Z,942.1
2017-05-03T10:45:35.139Z,942.1
2017-05-03T10:46:43.104Z,942.1
2017-05-03T10:47:51.201Z,942.1
2017-05-03T10:48:59.284Z,942.1
2017-05-03T10:50:07.370Z,942.1
2017-05-03T10:51:15.578Z,942.1
2017-05-03T10:52:23.542Z,942.0
2017-05-03T10:53:31.628Z,942.1
2017-05-03T10:54:39.800Z,942.1
2017-05-03T10:55:47.802Z,942.1
2017-05-03T10:56:56.013Z,942.0
2017-05-03T10:58:03.979Z,942.0
2017-05-03T10:59:12.121Z,942.0
2017-05-03T11:00:20.199Z,942.0
2017-05-03T11:01:28.343Z,942.0
2017-05-03T11:02:36.447Z,942.0
2017-05-03T11:03:44.410Z,941.9
2017-05-03T11:04:52.498Z,941.9
2017-05-03T11:06:00.586Z,942.0
2017-05-03T11:07:08.673Z,941.9
2017-05-03T11:08:16.881Z,941.9
2017-05-03T11:09:24.850Z,941.9
2017-05-03T11:10:32.941Z,941.9
2017-05-03T11:11:41.155Z,941.9
2017-05-03T11:12:49.122Z,941.9
2017-05-03T11:13:57.264Z,941.8
2017-05-03T11:15:05.420Z,941.8
2017-05-03T11:16:13.390Z,941.8
2017-05-03T11:17:21.481Z,941.8
2017-05-03T11:18:29.578Z,941.8
2017-05-03T11:19:37.719Z,941.8
2017-05-03T11:20:45.754Z,941.8
2017-05-03T11:21:54.003Z,941.8
2017-05-03T11:23:02.075Z,941.8
2017-05-03T11:24:10.017Z,941.8
2017-05-03T11:25:18.226Z,941.8
2017-05-03T11:26:26.193Z,941.8
2017-05-03T11:27:34.280Z,941.8
2017-05-03T11:28:42.372Z,941.8
2017-05-03T11:29:50.453Z,941.7
2017-05-03T11:30:58.661Z,941.7
2017-05-03T11:32:06.626Z,941.7
2017-05-03T11:33:14.784Z,941.7
2017-05-03T11:34:22.805Z,941.7
2017-05-03T11:35:30.889Z,941.7
2017-05-03T11:36:39.097Z,941.7
2017-05-03T11:37:47.064Z,941.7
2017-05-03T11:38:55.177Z,941.7
2017-05-03T11:40:03.256Z,941.7
2017-05-03T11:41:11.323Z,941.6
2017-05-03T11:42:19.467Z,941.7
2017-05-03T11:43:27.498Z,941.7
2017-05-03T11:44:35.594Z,941.7
2017-05-03T11:45:43.681Z,941.7
2017-05-03T11:46:51.888Z,941.7
2017-05-03T11:47:59.976Z,941.7
2017-05-03T11:49:07.941Z,941.7
2017-05-03T11:50:16.183Z,941.7
2017-05-03T11:51:24.116Z,941.7
2017-05-03T11:52:32.201Z,941.6
2017-05-03T11:53:40.410Z,941.6
2017-05-03T11:54:48.379Z,941.6
2017-05-03T11:55:56.576Z,941.6
2017-05-03T11:57:04.659Z,941.6
2017-05-03T11:58:12.637Z,941.6
2017-05-03T11:59:20.842Z,941.6
2017-05-03T12:00:28.807Z,941.6
2017-05-03T12:01:37.145Z,941.6
2017-05-03T12:02:45.038Z,941.6
2017-05-03T12:03:53.069Z,941.6
2017-05-03T12:05:01.276Z,941.6
2017-05-03T12:06:09.248Z,941.6
2017-05-03T12:07:17.497Z,941.6
2017-05-03T12:08:25.416Z,941.6
2017-05-03T12:09:33.502Z,941.6
2017-05-03T12:10:41.711Z,941.6
2017-05-03T12:11:49.676Z,941.5
2017-05-03T12:12:57.763Z,941.5
2017-05-03T12:14:05.852Z,941.5
2017-05-03T12:15:13.938Z,941.5
2017-05-03T12:16:22.082Z,941.5
2017-05-03T12:17:30.110Z,941.5
2017-05-03T12:18:38.320Z,941.5
2017-05-03T12:19:46.286Z,941.5
2017-05-03T12:20:54.370Z,941.6
2017-05-03T12:22:02.579Z,941.5
2017-05-03T12:23:10.547Z,941.5
2017-05-03T12:24:18.794Z,941.5
2017-05-03T12:25:26.719Z,941.5
2017-05-03T12:26:34.809Z,941.5
2017-05-03T12:27:43.014Z,941.5
2017-05-03T12:28:50.982Z,941.4
2017-05-03T12:29:59.097Z,941.5
2017-05-03T12:31:07.188Z,941.5
2017-05-03T12:32:15.244Z,941.4
2017-05-03T12:33:23.384Z,941.4
2017-05-03T12:34:31.544Z,941.4
2017-05-03T12:35:39.512Z,941.4
2017-05-03T12:36:47.630Z,941.4
2017-05-03T12:37:55.683Z,941.4
2017-05-03T12:39:03.825Z,941.4
2017-05-03T12:40:11.856Z,941.4
2017-05-03T12:41:19.945Z,941.4
2017-05-03T12:42:28.032Z,941.4
2017-05-03T12:43:36.124Z,941.4
2017-05-03T12:44:44.339Z,941.3
2017-05-03T12:45:52.299Z,941.3
2017-05-03T12:47:00.459Z,941.3
2017-05-03T12:48:08.541Z,941.3
2017-05-03T12:49:16.556Z,941.3
2017-05-03T12:50:24.770Z,941.3
2017-05-03T12:51:32.737Z,941.3
2017-05-03T12:52:40.824Z,941.3
2017-05-03T12:53:48.913Z,941.3
2017-05-03T12:54:57.000Z,941.2
2017-05-03T12:56:05.206Z,941.2
2017-05-03T12:57:13.176Z,941.2
2017-05-03T12:58:21.367Z,941.2
2017-05-03T12:59:29.349Z,941.2
2017-05-03T13:00:37.435Z,941.2
2017-05-03T13:01:45.642Z,941.2
2017-05-03T13:02:53.609Z,941.2
2017-05-03T13:04:01.699Z,941.2
2017-05-03T13:05:09.783Z,941.2
2017-05-03T13:06:17.990Z,941.1
2017-05-03T13:07:26.079Z,941.1
2017-05-03T13:08:34.211Z,941.1
2017-05-03T13:09:42.294Z,941.1
2017-05-03T13:10:50.220Z,941.1
2017-05-03T13:11:58.305Z,941.1
2017-05-03T13:13:06.516Z,941.1
2017-05-03T13:14:14.479Z,941.0
2017-05-03T13:15:22.618Z,941.0
2017-05-03T13:16:30.653Z,941.0
2017-05-03T13:17:38.739Z,941.0
2017-05-03T13:18:46.946Z,941.0
2017-05-03T13:19:54.916Z,941.0
2017-05-03T13:21:03.006Z,941.0
2017-05-03T13:22:11.211Z,941.0
2017-05-03T13:23:19.177Z,941.0
2017-05-03T13:24:27.318Z,941.0
2017-05-03T13:25:35.500Z,940.9
2017-05-03T13:26:43.589Z,940.9
2017-05-03T13:27:51.534Z,940.9
2017-05-03T13:28:59.619Z,940.9
2017-05-03T13:30:07.829Z,940.9
2017-05-03T13:31:15.793Z,940.9
2017-05-03T13:32:23.880Z,940.9
2017-05-03T13:33:31.969Z,940.9
2017-05-03T13:34:40.079Z,940.9
2017-05-03T13:35:48.273Z,940.9
2017-05-03T13:36:56.430Z,940.9
2017-05-03T13:38:04.443Z,940.9
2017-05-03T13:39:12.412Z,940.9
2017-05-03T13:40:20.498Z,940.9
2017-05-03T13:41:28.707Z,940.9
2017-05-03T13:42:36.672Z,940.8
2017-05-03T13:43:44.764Z,940.9
2017-05-03T13:44:53.852Z,940.9
2017-05-03T13:46:00.937Z,940.8
2017-05-03T13:47:09.151Z,940.8
2017-05-03T13:48:17.117Z,940.8
2017-05-03T13:49:25.205Z,940.8
2017-05-03T13:50:33.291Z,940.8
2017-05-03T13:51:41.381Z,940.8
2017-05-03T13:52:49.523Z,940.8
2017-05-03T13:53:57.800Z,940.8
2017-05-03T13:55:05.642Z,940.8
2017-05-03T13:56:13.726Z,940.7
2017-05-03T13:57:21.815Z,940.7
2017-05-03T13:58:30.022Z,940.7
2017-05-03T13:59:37.995Z,940.7
2017-05-03T14:00:46.075Z,940.8
2017-05-03T14:01:54.162Z,940.7
2017-05-03T14:03:02.251Z,940.7
2017-05-03T14:04:10.456Z,940.7
2017-05-03T14:05:18.614Z,940.7
2017-05-03T14:06:26.514Z,940.7
2017-05-03T14:07:34.600Z,940.6
2017-05-03T14:08:42.685Z,940.6
2017-05-03T14:09:50.893Z,940.6
2017-05-03T14:10:58.862Z,940.6
2017-05-03T14:12:06.947Z,940.6
2017-05-03T14:13:15.034Z,940.6
2017-05-03T14:14:23.124Z,940.6
2017-05-03T14:15:31.330Z,940.6
2017-05-03T14:16:39.297Z,940.6
2017-05-03T14:17:47.388Z,940.6
2017-05-03T14:18:55.473Z,940.6
2017-05-03T14:20:03.561Z,940.6
2017-05-03T14:21:11.705Z,940.5
2017-05-03T14:22:19.734Z,940.5
2017-05-03T14:23:27.823Z,940.5
2017-05-03T14:24:35.911Z,940.5
2017-05-03T14:25:44.122Z,940.5
2017-05-03T14:26:52.205Z,940.5
2017-05-03T14:28:00.171Z,940.5
2017-05-03T14:29:08.259Z,940.5
2017-05-03T14:30:16.345Z,940.5
2017-05-03T14:31:24.456Z,940.5
2017-05-03T14:32:32.790Z,940.6
2017-05-03T14:33:40.608Z,940.5
2017-05-03T14:34:48.697Z,940.5
2017-05-03T14:35:56.783Z,940.6
2017-05-03T14:37:04.872Z,940.6
2017-05-03T14:38:13.077Z,940.5
2017-05-03T14:39:21.081Z,940.5
2017-05-03T14:40:29.133Z,940.5
2017-05-03T14:41:37.342Z,940.5
2017-05-03T14:42:45.307Z,940.5
2017-05-03T14:43:53.450Z,940.5
2017-05-03T14:45:01.482Z,940.5
2017-05-03T14:46:09.569Z,940.5
2017-05-03T14:47:17.660Z,940.5
2017-05-03T14:48:25.744Z,940.5
2017-05-03T14:49:34.096Z,940.5
2017-05-03T14:50:41.919Z,940.5
2017-05-03T14:51:50.005Z,940.5
2017-05-03T14:52:58.093Z,940.5
2017-05-03T14:54:06.180Z,940.5
2017-05-03T14:55:14.389Z,940.5
2017-05-03T14:56:22.404Z,940.5
2017-05-03T14:57:30.500Z,940.5
2017-05-03T14:58:38.536Z,940.5
2017-05-03T14:59:46.615Z,940.5
2017-05-03T15:00:54.763Z,940.5
2017-05-03T15:02:02.793Z,940.5
2017-05-03T15:03:10.886Z,940.5
2017-05-03T15:04:18.981Z,940.5
2017-05-03T15:05:27.065Z,940.5
2017-05-03T15:06:35.463Z,940.5
2017-05-03T15:07:43.235Z,940.5
2017-05-03T15:08:51.325Z,940.5
2017-05-03T15:09:59.408Z,940.5
2017-05-03T15:11:07.499Z,940.5
2017-05-03T15:12:15.706Z,940.5
2017-05-03T15:13:23.793Z,940.5
2017-05-03T15:14:31.761Z,940.5
2017-05-03T15:15:39.849Z,940.5
2017-05-03T15:16:47.935Z,940.5
2017-05-03T15:17:56.078Z,940.5
2017-05-03T15:19:04.110Z,940.5
2017-05-03T15:20:12.199Z,940.5
2017-05-03T15:21:20.285Z,940.5
2017-05-03T15:22:28.373Z,940.5
2017-05-03T15:23:36.699Z,940.5
2017-05-03T15:24:44.546Z,940.5
2017-05-03T15:25:52.634Z,940.5
2017-05-03T15:27:00.721Z,940.5
2017-05-03T15:28:08.808Z,940.5
2017-05-03T15:29:17.015Z,940.5
2017-05-03T15:30:25.028Z,940.5
2017-05-03T15:31:33.070Z,940.5
2017-05-03T15:32:41.158Z,940.4
2017-05-03T15:33:49.245Z,940.4
2017-05-03T15:34:57.455Z,940.4
2017-05-03T15:36:05.420Z,940.5
2017-05-03T15:37:13.513Z,940.4
2017-05-03T15:38:21.594Z,940.4
2017-05-03T15:39:29.681Z,940.4
2017-05-03T15:40:37.896Z,940.4
2017-05-03T15:41:45.864Z,940.4
2017-05-03T15:42:53.951Z,940.4
2017-05-03T15:44:02.039Z,940.4
2017-05-03T15:45:10.258Z,940.4
2017-05-03T15:46:18.343Z,940.4
2017-05-03T15:47:26.306Z,940.4
2017-05-03T15:48:34.397Z,940.4
2017-05-03T15:49:42.486Z,940.4
2017-05-03T15:50:50.574Z,940.4
2017-05-03T15:51:58.892Z,940.4
2017-05-03T15:53:06.745Z,940.3
2017-05-03T15:54:14.830Z,940.3
2017-05-03T15:55:22.921Z,940.3
2017-05-03T15:56:31.008Z,940.3
2017-05-03T15:57:39.167Z,940.3
2017-05-03T15:58:47.184Z,940.2
2017-05-03T15:59:55.272Z,940.3
2017-05-03T16:01:03.481Z,940.2
2017-05-03T16:02:11.683Z,940.3
2017-05-03T16:03:19.710Z,940.2
2017-05-03T16:04:27.621Z,940.2
2017-05-03T16:05:35.710Z,940.2
2017-05-03T16:06:43.796Z,940.2
2017-05-03T16:07:52.003Z,940.2
2017-05-03T16:08:59.999Z,940.2
2017-05-03T16:10:08.060Z,940.3
2017-05-03T16:11:16.153Z,940.2
2017-05-03T16:12:24.237Z,940.2
2017-05-03T16:13:32.444Z,940.2
2017-05-03T16:14:40.409Z,940.2
2017-05-03T16:15:48.497Z,940.2
2017-05-03T16:16:56.640Z,940.2
2017-05-03T16:18:04.669Z,940.2
2017-05-03T16:19:12.877Z,940.2
2017-05-03T16:20:20.864Z,940.2
2017-05-03T16:21:28.933Z,940.2
2017-05-03T16:22:37.025Z,940.2
2017-05-03T16:23:45.106Z,940.2
2017-05-03T16:24:53.250Z,940.2
2017-05-03T16:26:01.284Z,940.2
2017-05-03T16:27:09.369Z,940.2
2017-05-03T16:28:17.456Z,940.2
2017-05-03T16:29:25.544Z,940.2
2017-05-03T16:30:33.825Z,940.2
2017-05-03T16:31:41.721Z,940.2
2017-05-03T16:32:49.926Z,940.2
2017-05-03T16:33:57.891Z,940.1
2017-05-03T16:35:05.982Z,940.1
2017-05-03T16:36:14.153Z,940.2
2017-05-03T16:37:22.203Z,940.2
2017-05-03T16:38:30.245Z,940.2
2017-05-03T16:39:38.333Z,940.2
2017-05-03T16:40:46.418Z,940.2
2017-05-03T16:41:54.631Z,940.2
2017-05-03T16:43:02.602Z,940.2
2017-05-03T16:44:10.687Z,940.3
2017-05-03T16:45:18.775Z,940.3
2017-05-03T16:46:26.868Z,940.3
2017-05-03T16:47:35.175Z,940.3
2017-05-03T16:48:43.098Z,940.3
2017-05-03T16:49:51.126Z,940.3
2017-05-03T16:50:59.216Z,940.3
2017-05-03T16:52:07.326Z,940.3
2017-05-03T16:53:15.509Z,940.3
2017-05-03T16:54:23.478Z,940.3
2017-05-03T16:55:31.569Z,940.4
2017-05-03T16:56:39.656Z,940.4
2017-05-03T16:57:47.788Z,940.3
2017-05-03T16:58:56.056Z,940.4
2017-05-03T17:00:03.929Z,940.4
2017-05-03T17:01:12.015Z,940.4
2017-05-03T17:02:20.105Z,940.4
2017-05-03T17:03:28.190Z,940.4
2017-05-03T17:04:36.436Z,940.4
2017-05-03T17:05:44.372Z,940.4
2017-05-03T17:06:52.462Z,940.4
2017-05-03T17:08:00.543Z,940.4
2017-05-03T17:09:08.640Z,940.4
2017-05-03T17:10:16.839Z,940.4
2017-05-03T17:11:24.806Z,940.4
2017-05-03T17:12:32.896Z,940.4
2017-05-03T17:13:40.982Z,940.4
2017-05-03T17:14:49.231Z,940.3
2017-05-03T17:15:57.433Z,940.4
2017-05-03T17:17:05.248Z,940.4
2017-05-03T17:18:13.331Z,940.4
2017-05-03T17:19:21.419Z,940.4
2017-05-03T17:20:29.630Z,940.5
2017-05-03T17:21:37.753Z,940.4
2017-05-03T17:22:45.683Z,940.4
2017-05-03T17:23:53.770Z,940.5
2017-05-03T17:25:01.863Z,940.5
2017-05-03T17:26:10.140Z,940.5
2017-05-03T17:27:18.095Z,940.5
2017-05-03T17:28:26.121Z,940.5
2017-05-03T17:29:34.205Z,940.5
2017-05-03T17:30:42.298Z,940.5
2017-05-03T17:31:50.438Z,940.5
2017-05-03T17:32:58.645Z,940.5
2017-05-03T17:34:06.558Z,940.6
2017-05-03T17:35:14.645Z,940.5
2017-05-03T17:36:22.854Z,940.6
2017-05-03T17:37:30.820Z,940.6
2017-05-03T17:38:39.028Z,940.6
2017-05-03T17:39:46.995Z,940.6
2017-05-03T17:40:55.081Z,940.6
2017-05-03T17:42:03.167Z,940.6
2017-05-03T17:43:11.347Z,940.6
2017-05-03T17:44:19.465Z,940.6
2017-05-03T17:45:27.437Z,940.6
2017-05-03T17:46:35.521Z,940.6
2017-05-03T17:47:43.608Z,940.6
2017-05-03T17:48:51.696Z,940.6
2017-05-03T17:49:59.902Z,940.6
2017-05-03T17:51:07.870Z,940.6
2017-05-03T17:52:16.081Z,940.6
2017-05-03T17:53:24.185Z,940.6
2017-05-03T17:54:32.268Z,940.6
2017-05-03T17:55:40.347Z,940.6
2017-05-03T17:56:48.310Z,940.6
2017-05-03T17:57:56.414Z,940.60
2017-05-03T17:59:04.486Z,940.6
2017-05-03T18:00:12.578Z,940.6
2017-05-03T18:01:20.786Z,940.6
2017-05-03T18:02:28.750Z,940.6
2017-05-03T18:03:36.842Z,940.6
2017-05-03T18:04:44.932Z,940.6
2017-05-03T18:05:53.012Z,940.7
2017-05-03T18:07:01.224Z,940.7
2017-05-03T18:08:09.311Z,940.7
2017-05-03T18:09:17.274Z,940.7
2017-05-03T18:10:25.504Z,940.7
2017-05-03T18:11:33.618Z,940.7
2017-05-03T18:12:41.655Z,940.7
2017-05-03T18:13:49.623Z,940.7
2017-05-03T18:14:57.710Z,940.7
2017-05-03T18:16:05.799Z,940.7
2017-05-03T18:17:13.987Z,940.7
2017-05-03T18:18:22.094Z,940.7
2017-05-03T18:19:30.061Z,940.7
2017-05-03T18:20:38.151Z,940.7
2017-05-03T18:21:46.239Z,940.7
2017-05-03T18:22:54.325Z,940.7
2017-05-03T18:24:02.532Z,940.7
2017-05-03T18:25:10.503Z,940.7
2017-05-03T18:26:18.595Z,940.7
2017-05-03T18:27:26.739Z,940.7
2017-05-03T18:28:34.827Z,940.7
2017-05-03T18:29:42.918Z,940.7
2017-05-03T18:30:50.944Z,940.7
2017-05-03T18:31:59.030Z,940.7
2017-05-03T18:33:07.121Z,940.8
2017-05-03T18:34:15.260Z,940.7
2017-05-03T18:35:23.357Z,940.8
2017-05-03T18:36:31.381Z,940.8
2017-05-03T18:37:39.469Z,940.8
2017-05-03T18:38:47.554Z,940.8
2017-05-03T18:39:55.763Z,940.8
2017-05-03T18:41:03.786Z,940.8
2017-05-03T18:42:11.817Z,940.8
2017-05-03T18:43:19.906Z,940.8
2017-05-03T18:44:28.094Z,940.9
2017-05-03T18:45:36.183Z,940.8
2017-05-03T18:46:44.226Z,940.8
2017-05-03T18:47:52.257Z,940.9
2017-05-03T18:49:00.360Z,940.82
2017-05-03T18:50:08.434Z,940.8
2017-05-03T18:51:16.518Z,940.8
2017-05-03T18:52:24.737Z,940.8
2017-05-03T18:53:32.699Z,940.8
2017-05-03T18:54:40.787Z,940.8
2017-05-03T18:55:49.100Z,940.8
2017-05-03T18:56:56.963Z,940.8
2017-05-03T18:58:05.167Z,940.8
2017-05-03T18:59:13.136Z,940.9
2017-05-03T19:00:21.223Z,940.8
2017-05-03T19:01:29.348Z,940.9
2017-05-03T19:02:37.440Z,940.9
2017-05-03T19:03:45.604Z,940.9
2017-05-03T19:04:53.572Z,940.9
2017-05-03T19:06:01.704Z,940.9
2017-05-03T19:07:09.747Z,940.9
2017-05-03T19:08:17.834Z,940.9
2017-05-03T19:09:26.040Z,941.0
2017-05-03T19:10:34.022Z,941.0
2017-05-03T19:11:42.213Z,941.0
2017-05-03T19:12:50.326Z,941.0
2017-05-03T19:13:58.266Z,941.0
2017-05-03T19:15:06.472Z,941.0
2017-05-03T19:16:14.440Z,941.0
2017-05-03T19:17:22.528Z,941.0
2017-05-03T19:18:30.661Z,941.0
2017-05-03T19:19:38.703Z,940.9
2017-05-03T19:20:46.909Z,941.0
2017-05-03T19:21:55.387Z,940.9
2017-05-03T19:23:03.087Z,941.0
2017-05-03T19:24:11.065Z,941.0
2017-05-03T19:25:19.153Z,941.0
2017-05-03T19:26:29.268Z,941.0
2017-05-03T19:27:35.454Z,941.0
2017-05-03T19:28:43.418Z,941.0
2017-05-03T19:29:51.587Z,941.0
2017-05-03T19:30:59.590Z,941.0
2017-05-03T19:32:07.799Z,941.0
2017-05-03T19:33:15.765Z,941.0
2017-05-03T19:34:23.853Z,941.0
2017-05-03T19:35:31.940Z,941.0
2017-05-03T19:36:40.154Z,941.0
2017-05-03T19:37:48.234Z,941.0
2017-05-03T19:38:56.201Z,941.0
2017-05-03T19:40:04.403Z,940.9
2017-05-03T19:41:12.379Z,940.9
2017-05-03T19:42:20.485Z,941.0
2017-05-03T19:43:28.682Z,941.0
2017-05-03T19:44:36.637Z,940.9
2017-05-03T19:45:44.726Z,940.9
2017-05-03T19:46:52.815Z,941.0
2017-05-03T19:48:00.910Z,941.0
2017-05-03T19:49:09.114Z,940.9
2017-05-03T19:50:17.081Z,941.0
2017-05-03T19:51:25.164Z,941.0
2017-05-03T19:52:33.251Z,941.0
2017-05-03T19:53:41.339Z,941.0
2017-05-03T19:54:49.545Z,941.0
2017-05-03T19:55:57.513Z,941.0
2017-05-03T19:57:05.690Z,941.0
2017-05-03T19:58:13.787Z,941.0
2017-05-03T19:59:21.831Z,941.0
2017-05-03T20:00:29.982Z,941.0
2017-05-03T20:01:37.947Z,941.0
2017-05-03T20:02:46.038Z,941.0
2017-05-03T20:03:54.194Z,941.0
2017-05-03T20:05:02.212Z,941.0
2017-05-03T20:06:10.360Z,941.0
2017-05-03T20:07:18.392Z,941.0
2017-05-03T20:08:26.474Z,941.0
2017-05-03T20:09:34.565Z,941.0
2017-05-03T20:10:42.654Z,941.0
2017-05-03T20:11:50.869Z,940.9
2017-05-03T20:12:58.831Z,940.9
2017-05-03T20:14:07.051Z,940.9
2017-05-03T20:15:15.266Z,940.9
2017-05-03T20:16:23.093Z,940.9
2017-05-03T20:17:31.300Z,940.9
2017-05-03T20:18:39.267Z,940.9
2017-05-03T20:19:47.356Z,940.9
2017-05-03T20:20:55.490Z,940.9
2017-05-03T20:22:03.529Z,940.9
2017-05-03T20:23:11.738Z,940.9
2017-05-03T20:24:19.707Z,940.9
2017-05-03T20:25:27.901Z,940.9
2017-05-03T20:26:35.884Z,940.9
2017-05-03T20:27:43.966Z,940.9
2017-05-03T20:28:52.178Z,940.9
2017-05-03T20:30:00.140Z,940.9
2017-05-03T20:31:08.447Z,941.0
2017-05-03T20:32:16.417Z,941.0
2017-05-03T20:33:24.408Z,941.0
2017-05-03T20:34:32.613Z,940.9
2017-05-03T20:35:40.796Z,941.0
2017-05-03T20:36:48.672Z,940.9
2017-05-03T20:37:56.760Z,940.9
2017-05-03T20:39:04.852Z,941.0
2017-05-03T20:40:12.996Z,940.9
2017-05-03T20:41:21.024Z,940.9
2017-05-03T20:42:29.273Z,940.9
2017-05-03T20:43:37.196Z,941.0
2017-05-03T20:44:45.284Z,941.0
2017-05-03T20:45:53.492Z,941.0
2017-05-03T20:47:01.577Z,941.0
2017-05-03T20:48:09.623Z,941.0
2017-05-03T20:49:17.697Z,941.0
2017-05-03T20:50:25.721Z,941.0
2017-05-03T20:51:33.866Z,940.9
2017-05-03T20:52:41.897Z,941.0
2017-05-03T20:53:49.998Z,940.9
2017-05-03T20:54:58.069Z,941.0
2017-05-03T20:56:06.155Z,941.0
2017-05-03T20:57:14.369Z,941.0
2017-05-03T20:58:22.339Z,941.0
2017-05-03T20:59:30.593Z,941.0
2017-05-03T21:00:38.522Z,941.0
2017-05-03T21:01:46.603Z,940.9
2017-05-03T21:02:54.811Z,940.9
2017-05-03T21:04:02.776Z,941.0
2017-05-03T21:05:10.969Z,940.9
2017-05-03T21:06:19.057Z,940.9
2017-05-03T21:07:27.040Z,940.9
2017-05-03T21:08:35.252Z,940.9
2017-05-03T21:09:43.215Z,940.9
2017-05-03T21:10:51.478Z,940.9
2017-05-03T21:11:59.389Z,940.9
2017-05-03T21:13:07.476Z,940.9
2017-05-03T21:14:15.684Z,940.9
2017-05-03T21:15:23.651Z,940.9
2017-05-03T21:16:31.839Z,940.9
2017-05-03T21:17:39.826Z,940.9
2017-05-03T21:18:48.034Z,940.9
2017-05-03T21:19:56.125Z,940.9
2017-05-03T21:21:04.090Z,940.9
2017-05-03T21:22:12.244Z,940.9
2017-05-03T21:23:20.317Z,940.9
2017-05-03T21:24:28.350Z,940.9
2017-05-03T21:25:36.491Z,940.8
2017-05-03T21:26:44.527Z,940.9
2017-05-03T21:27:52.609Z,940.9
2017-05-03T21:29:00.698Z,940.8
2017-05-03T21:30:08.785Z,940.8
2017-05-03T21:31:16.992Z,940.8
2017-05-03T21:32:24.959Z,940.8
2017-05-03T21:33:33.153Z,940.8
2017-05-03T21:34:41.190Z,940.8
2017-05-03T21:35:49.219Z,940.8
2017-05-03T21:36:57.428Z,940.8
2017-05-03T21:38:05.396Z,940.8
2017-05-03T21:39:13.544Z,940.8
2017-05-03T21:40:21.571Z,940.8
2017-05-03T21:41:29.654Z,940.8
2017-05-03T21:42:37.866Z,940.8
2017-05-03T21:43:45.832Z,940.8
2017-05-03T21:44:54.044Z,940.8
2017-05-03T21:46:02.006Z,940.8
2017-05-03T21:47:10.093Z,940.8
2017-05-03T21:48:18.306Z,940.7
2017-05-03T21:49:26.269Z,940.8
2017-05-03T21:50:34.414Z,940.7
2017-05-03T21:51:42.443Z,940.7
2017-05-03T21:52:50.529Z,940.7
2017-05-03T21:53:58.676Z,940.7
2017-05-03T21:55:06.771Z,940.7
2017-05-03T21:56:14.854Z,940.7